sensor_id;sensor_type;location;lat;lon;timestamp;temperature;humidity
7014;DHT22;3547;50.774;12.918;2023-09-18T00:00:58;20.00;1.00
7014;DHT22;3547;50.774;12.918;2023-09-18T00:03:24;20.00;1.00
7014;DHT22;3547;50.774;12.918;2023-09-18T00:05:51;20.00;1.00
7014;DHT22;3547;50.774;12.918;2023-09-18T00:08:18;20.10;1.00
7014;DHT22;3547;50.774;12.918;2023-09-18T00:10:51;20.10;1.00
7014;DHT22;3547;50.774;12.918;2023-09-18T00:13:18;20.10;1.00
7014;DHT22;3547;50.774;12.918;2023-09-18T00:15:45;20.10;1.00
7014;DHT22;3547;50.774;12.918;2023-09-18T00:18:16;20.10;1.00
7014;DHT22;3547;50.774;12.918;2023-09-18T00:20:43;20.00;1.00
7014;DHT22;3547;50.774;12.918;2023-09-18T00:23:09;20.00;1.00
7014;DHT22;3547;50.774;12.918;2023-09-18T00:25:36;20.00;1.00
7014;DHT22;3547;50.774;12.918;2023-09-18T00:28:08;19.80;1.00
7014;DHT22;3547;50.774;12.918;2023-09-18T00:30:34;19.60;1.00
7014;DHT22;3547;50.774;12.918;2023-09-18T00:33:00;19.40;1.00
7014;DHT22;3547;50.774;12.918;2023-09-18T00:35:27;19.30;1.00
7014;DHT22;3547;50.774;12.918;2023-09-18T00:37:53;19.30;1.00
7014;DHT22;3547;50.774;12.918;2023-09-18T00:40:20;19.20;1.00
7014;DHT22;3547;50.774;12.918;2023-09-18T00:42:46;19.30;1.00
7014;DHT22;3547;50.774;12.918;2023-09-18T00:45:12;19.30;1.00
7014;DHT22;3547;50.774;12.918;2023-09-18T00:47:38;19.30;1.00
7014;DHT22;3547;50.774;12.918;2023-09-18T00:50:06;19.20;1.00
7014;DHT22;3547;50.774;12.918;2023-09-18T00:52:35;19.00;1.00
7014;DHT22;3547;50.774;12.918;2023-09-18T00:55:02;19.00;1.00
7014;DHT22;3547;50.774;12.918;2023-09-18T00:57:28;18.90;1.00
7014;DHT22;3547;50.774;12.918;2023-09-18T00:59:55;19.00;1.00
7014;DHT22;3547;50.774;12.918;2023-09-18T01:02:21;19.00;1.00
7014;DHT22;3547;50.774;12.918;2023-09-18T01:04:49;18.90;1.00
7014;DHT22;3547;50.774;12.918;2023-09-18T01:07:15;18.90;1.00
7014;DHT22;3547;50.774;12.918;2023-09-18T01:09:42;18.90;1.00
7014;DHT22;3547;50.774;12.918;2023-09-18T01:12:33;19.00;1.00
7014;DHT22;3547;50.774;12.918;2023-09-18T01:15:17;19.00;1.00
7014;DHT22;3547;50.774;12.918;2023-09-18T01:17:44;19.00;1.00
7014;DHT22;3547;50.774;12.918;2023-09-18T01:20:12;19.10;1.00
7014;DHT22;3547;50.774;12.918;2023-09-18T01:22:38;18.90;1.00
7014;DHT22;3547;50.774;12.918;2023-09-18T01:25:06;18.60;1.00
7014;DHT22;3547;50.774;12.918;2023-09-18T01:27:32;18.60;1.00
7014;DHT22;3547;50.774;12.918;2023-09-18T01:29:59;18.70;1.00
7014;DHT22;3547;50.774;12.918;2023-09-18T01:32:27;18.60;1.00
7014;DHT22;3547;50.774;12.918;2023-09-18T01:35:00;18.60;1.00
7014;DHT22;3547;50.774;12.918;2023-09-18T01:37:28;18.50;1.00
7014;DHT22;3547;50.774;12.918;2023-09-18T01:39:56;18.30;1.00
7014;DHT22;3547;50.774;12.918;2023-09-18T01:42:28;18.10;1.00
7014;DHT22;3547;50.774;12.918;2023-09-18T01:44:55;17.90;1.00
7014;DHT22;3547;50.774;12.918;2023-09-18T01:47:22;17.90;1.00
7014;DHT22;3547;50.774;12.918;2023-09-18T01:49:57;17.70;1.00
7014;DHT22;3547;50.774;12.918;2023-09-18T01:52:24;17.60;1.00
7014;DHT22;3547;50.774;12.918;2023-09-18T01:54:50;17.60;1.00
7014;DHT22;3547;50.774;12.918;2023-09-18T01:57:16;17.50;1.00
7014;DHT22;3547;50.774;12.918;2023-09-18T01:59:42;17.50;1.00
7014;DHT22;3547;50.774;12.918;2023-09-18T02:02:09;17.60;1.00
7014;DHT22;3547;50.774;12.918;2023-09-18T02:04:37;17.70;1.00
7014;DHT22;3547;50.774;12.918;2023-09-18T02:07:05;17.60;1.00
7014;DHT22;3547;50.774;12.918;2023-09-18T02:09:31;17.60;1.00
7014;DHT22;3547;50.774;12.918;2023-09-18T02:11:57;17.60;1.00
7014;DHT22;3547;50.774;12.918;2023-09-18T02:14:23;17.60;1.00
7014;DHT22;3547;50.774;12.918;2023-09-18T02:16:49;17.60;1.00
7014;DHT22;3547;50.774;12.918;2023-09-18T02:19:17;17.60;1.00
7014;DHT22;3547;50.774;12.918;2023-09-18T02:21:46;17.60;1.00
7014;DHT22;3547;50.774;12.918;2023-09-18T02:27:34;17.70;1.00
7014;DHT22;3547;50.774;12.918;2023-09-18T02:30:01;17.70;1.00
7014;DHT22;3547;50.774;12.918;2023-09-18T02:32:27;17.70;1.00
7014;DHT22;3547;50.774;12.918;2023-09-18T02:34:53;17.70;1.00
7014;DHT22;3547;50.774;12.918;2023-09-18T02:37:19;17.80;1.00
7014;DHT22;3547;50.774;12.918;2023-09-18T02:39:45;17.70;1.00
7014;DHT22;3547;50.774;12.918;2023-09-18T02:42:11;17.70;1.00
7014;DHT22;3547;50.774;12.918;2023-09-18T02:44:37;17.90;1.00
7014;DHT22;3547;50.774;12.918;2023-09-18T02:47:04;18.00;1.00
7014;DHT22;3547;50.774;12.918;2023-09-18T02:49:30;18.00;1.00
7014;DHT22;3547;50.774;12.918;2023-09-18T02:51:56;18.10;1.00
7014;DHT22;3547;50.774;12.918;2023-09-18T02:54:22;18.10;1.00
7014;DHT22;3547;50.774;12.918;2023-09-18T02:56:48;18.10;1.00
7014;DHT22;3547;50.774;12.918;2023-09-18T02:59:14;18.10;1.00
7014;DHT22;3547;50.774;12.918;2023-09-18T03:01:40;18.10;1.00
7014;DHT22;3547;50.774;12.918;2023-09-18T03:04:07;18.10;1.00
7014;DHT22;3547;50.774;12.918;2023-09-18T03:06:33;18.10;1.00
7014;DHT22;3547;50.774;12.918;2023-09-18T03:08:59;18.20;1.00
7014;DHT22;3547;50.774;12.918;2023-09-18T03:11:25;18.20;1.00
7014;DHT22;3547;50.774;12.918;2023-09-18T03:13:53;18.10;1.00
7014;DHT22;3547;50.774;12.918;2023-09-18T03:16:20;18.10;1.00
7014;DHT22;3547;50.774;12.918;2023-09-18T03:18:46;18.20;1.00
7014;DHT22;3547;50.774;12.918;2023-09-18T03:21:12;18.10;1.00
7014;DHT22;3547;50.774;12.918;2023-09-18T03:23:38;18.10;1.00
7014;DHT22;3547;50.774;12.918;2023-09-18T03:26:04;18.00;1.00
7014;DHT22;3547;50.774;12.918;2023-09-18T03:28:30;18.00;1.00
7014;DHT22;3547;50.774;12.918;2023-09-18T03:30:58;17.90;1.00
7014;DHT22;3547;50.774;12.918;2023-09-18T03:33:24;17.90;1.00
7014;DHT22;3547;50.774;12.918;2023-09-18T03:35:54;17.80;1.00
7014;DHT22;3547;50.774;12.918;2023-09-18T03:38:24;17.80;1.00
7014;DHT22;3547;50.774;12.918;2023-09-18T03:40:50;17.70;1.00
7014;DHT22;3547;50.774;12.918;2023-09-18T03:43:17;17.70;1.00
7014;DHT22;3547;50.774;12.918;2023-09-18T03:45:43;17.70;1.00
7014;DHT22;3547;50.774;12.918;2023-09-18T03:48:10;17.70;1.00
7014;DHT22;3547;50.774;12.918;2023-09-18T03:50:36;17.60;1.00
7014;DHT22;3547;50.774;12.918;2023-09-18T03:53:03;17.50;1.00
7014;DHT22;3547;50.774;12.918;2023-09-18T03:55:29;17.60;1.00
7014;DHT22;3547;50.774;12.918;2023-09-18T03:57:55;17.70;1.00
7014;DHT22;3547;50.774;12.918;2023-09-18T04:00:22;17.80;1.00
7014;DHT22;3547;50.774;12.918;2023-09-18T04:02:49;17.80;1.00
7014;DHT22;3547;50.774;12.918;2023-09-18T04:05:15;17.80;1.00
7014;DHT22;3547;50.774;12.918;2023-09-18T04:07:41;17.80;1.00
7014;DHT22;3547;50.774;12.918;2023-09-18T04:10:13;17.60;1.00
7014;DHT22;3547;50.774;12.918;2023-09-18T04:12:49;17.50;1.00
7014;DHT22;3547;50.774;12.918;2023-09-18T04:15:16;17.40;1.00
7014;DHT22;3547;50.774;12.918;2023-09-18T04:17:44;17.40;1.00
7014;DHT22;3547;50.774;12.918;2023-09-18T04:20:11;17.50;1.00
7014;DHT22;3547;50.774;12.918;2023-09-18T04:22:44;17.50;1.00
7014;DHT22;3547;50.774;12.918;2023-09-18T04:25:12;17.60;1.00
7014;DHT22;3547;50.774;12.918;2023-09-18T04:27:38;17.60;1.00
7014;DHT22;3547;50.774;12.918;2023-09-18T04:30:05;17.60;1.00
7014;DHT22;3547;50.774;12.918;2023-09-18T04:32:31;17.50;1.00
7014;DHT22;3547;50.774;12.918;2023-09-18T04:34:57;17.50;1.00
7014;DHT22;3547;50.774;12.918;2023-09-18T04:37:24;17.50;1.00
7014;DHT22;3547;50.774;12.918;2023-09-18T04:39:50;17.50;1.00
7014;DHT22;3547;50.774;12.918;2023-09-18T04:42:17;17.50;1.00
7014;DHT22;3547;50.774;12.918;2023-09-18T04:44:44;17.50;1.00
7014;DHT22;3547;50.774;12.918;2023-09-18T04:47:10;17.40;1.00
7014;DHT22;3547;50.774;12.918;2023-09-18T04:49:36;17.30;1.00
7014;DHT22;3547;50.774;12.918;2023-09-18T04:52:02;17.40;1.00
7014;DHT22;3547;50.774;12.918;2023-09-18T04:54:29;17.30;1.00
7014;DHT22;3547;50.774;12.918;2023-09-18T04:56:55;17.30;1.00
7014;DHT22;3547;50.774;12.918;2023-09-18T04:59:21;17.30;1.00
7014;DHT22;3547;50.774;12.918;2023-09-18T05:01:47;17.30;1.00
7014;DHT22;3547;50.774;12.918;2023-09-18T05:04:13;17.30;1.00
7014;DHT22;3547;50.774;12.918;2023-09-18T05:06:40;17.20;1.00
7014;DHT22;3547;50.774;12.918;2023-09-18T05:09:07;17.30;1.00
7014;DHT22;3547;50.774;12.918;2023-09-18T05:11:34;17.20;1.00
7014;DHT22;3547;50.774;12.918;2023-09-18T05:14:00;17.10;1.00
7014;DHT22;3547;50.774;12.918;2023-09-18T05:16:26;17.20;1.00
7014;DHT22;3547;50.774;12.918;2023-09-18T05:18:52;17.10;1.00
7014;DHT22;3547;50.774;12.918;2023-09-18T05:21:18;17.10;1.00
7014;DHT22;3547;50.774;12.918;2023-09-18T05:23:50;17.10;1.00
7014;DHT22;3547;50.774;12.918;2023-09-18T05:26:17;17.30;1.00
7014;DHT22;3547;50.774;12.918;2023-09-18T05:28:43;17.40;1.00
7014;DHT22;3547;50.774;12.918;2023-09-18T05:31:09;17.50;1.00
7014;DHT22;3547;50.774;12.918;2023-09-18T05:33:35;17.60;1.00
7014;DHT22;3547;50.774;12.918;2023-09-18T05:36:01;17.80;1.00
7014;DHT22;3547;50.774;12.918;2023-09-18T05:38:27;17.90;1.00
7014;DHT22;3547;50.774;12.918;2023-09-18T05:40:53;18.00;1.00
7014;DHT22;3547;50.774;12.918;2023-09-18T05:43:19;18.10;1.00
7014;DHT22;3547;50.774;12.918;2023-09-18T05:45:45;18.10;1.00
7014;DHT22;3547;50.774;12.918;2023-09-18T05:48:13;18.30;1.00
7014;DHT22;3547;50.774;12.918;2023-09-18T05:50:39;18.30;1.00
7014;DHT22;3547;50.774;12.918;2023-09-18T05:53:07;18.40;1.00
7014;DHT22;3547;50.774;12.918;2023-09-18T05:55:34;18.50;1.00
7014;DHT22;3547;50.774;12.918;2023-09-18T05:58:00;18.60;1.00
7014;DHT22;3547;50.774;12.918;2023-09-18T06:00:27;18.70;1.00
7014;DHT22;3547;50.774;12.918;2023-09-18T06:02:53;18.80;1.00
7014;DHT22;3547;50.774;12.918;2023-09-18T06:05:19;18.90;1.00
7014;DHT22;3547;50.774;12.918;2023-09-18T06:07:50;19.00;1.00
7014;DHT22;3547;50.774;12.918;2023-09-18T06:10:16;19.10;1.00
7014;DHT22;3547;50.774;12.918;2023-09-18T06:12:44;19.20;1.00
7014;DHT22;3547;50.774;12.918;2023-09-18T06:15:11;19.30;1.00
7014;DHT22;3547;50.774;12.918;2023-09-18T06:17:42;19.40;1.00
7014;DHT22;3547;50.774;12.918;2023-09-18T06:20:10;19.50;1.00
7014;DHT22;3547;50.774;12.918;2023-09-18T06:22:40;19.60;1.00
7014;DHT22;3547;50.774;12.918;2023-09-18T06:25:07;19.60;1.00
7014;DHT22;3547;50.774;12.918;2023-09-18T06:27:37;19.70;1.00
7014;DHT22;3547;50.774;12.918;2023-09-18T06:30:04;19.80;1.00
7014;DHT22;3547;50.774;12.918;2023-09-18T06:32:31;19.90;1.00
7014;DHT22;3547;50.774;12.918;2023-09-18T06:34:57;20.00;1.00
7014;DHT22;3547;50.774;12.918;2023-09-18T06:37:24;20.10;1.00
7014;DHT22;3547;50.774;12.918;2023-09-18T06:39:50;20.30;1.00
7014;DHT22;3547;50.774;12.918;2023-09-18T06:42:17;20.30;1.00
7014;DHT22;3547;50.774;12.918;2023-09-18T06:44:43;20.40;1.00
7014;DHT22;3547;50.774;12.918;2023-09-18T06:47:10;20.60;1.00
7014;DHT22;3547;50.774;12.918;2023-09-18T06:49:36;20.60;1.00
7014;DHT22;3547;50.774;12.918;2023-09-18T06:52:02;20.80;1.00
7014;DHT22;3547;50.774;12.918;2023-09-18T06:54:29;20.90;1.00
7014;DHT22;3547;50.774;12.918;2023-09-18T06:56:55;21.00;1.00
7014;DHT22;3547;50.774;12.918;2023-09-18T06:59:21;21.00;1.00
7014;DHT22;3547;50.774;12.918;2023-09-18T07:01:47;21.10;1.00
7014;DHT22;3547;50.774;12.918;2023-09-18T07:04:13;21.20;1.00
7014;DHT22;3547;50.774;12.918;2023-09-18T07:06:39;21.30;1.00
7014;DHT22;3547;50.774;12.918;2023-09-18T07:09:06;21.40;1.00
7014;DHT22;3547;50.774;12.918;2023-09-18T07:11:36;21.40;1.00
7014;DHT22;3547;50.774;12.918;2023-09-18T07:14:02;21.60;1.00
7014;DHT22;3547;50.774;12.918;2023-09-18T07:16:32;21.60;1.00
7014;DHT22;3547;50.774;12.918;2023-09-18T07:18:58;21.70;1.00
7014;DHT22;3547;50.774;12.918;2023-09-18T07:21:24;21.80;1.00
7014;DHT22;3547;50.774;12.918;2023-09-18T07:23:50;21.90;1.00
7014;DHT22;3547;50.774;12.918;2023-09-18T07:26:17;22.00;1.00
7014;DHT22;3547;50.774;12.918;2023-09-18T07:28:43;22.20;1.00
7014;DHT22;3547;50.774;12.918;2023-09-18T07:31:12;22.30;1.00
7014;DHT22;3547;50.774;12.918;2023-09-18T07:33:38;22.40;1.00
7014;DHT22;3547;50.774;12.918;2023-09-18T07:36:04;22.50;1.00
7014;DHT22;3547;50.774;12.918;2023-09-18T07:38:31;22.60;1.00
7014;DHT22;3547;50.774;12.918;2023-09-18T07:40:57;22.70;1.00
7014;DHT22;3547;50.774;12.918;2023-09-18T07:43:26;22.90;1.00
7014;DHT22;3547;50.774;12.918;2023-09-18T07:45:53;23.00;1.00
7014;DHT22;3547;50.774;12.918;2023-09-18T07:48:22;23.10;1.00
7014;DHT22;3547;50.774;12.918;2023-09-18T07:50:48;23.20;1.00
7014;DHT22;3547;50.774;12.918;2023-09-18T07:53:15;23.30;1.00
7014;DHT22;3547;50.774;12.918;2023-09-18T07:55:42;23.40;1.00
7014;DHT22;3547;50.774;12.918;2023-09-18T07:58:09;23.30;1.00
7014;DHT22;3547;50.774;12.918;2023-09-18T08:00:35;23.40;1.00
7014;DHT22;3547;50.774;12.918;2023-09-18T08:03:01;23.50;1.00
7014;DHT22;3547;50.774;12.918;2023-09-18T08:05:28;23.50;1.00
7014;DHT22;3547;50.774;12.918;2023-09-18T08:07:54;23.60;1.00
7014;DHT22;3547;50.774;12.918;2023-09-18T08:10:26;23.60;1.00
7014;DHT22;3547;50.774;12.918;2023-09-18T08:12:52;23.70;1.00
7014;DHT22;3547;50.774;12.918;2023-09-18T08:15:22;23.80;1.00
7014;DHT22;3547;50.774;12.918;2023-09-18T08:17:48;23.90;1.00
7014;DHT22;3547;50.774;12.918;2023-09-18T08:20:16;24.00;1.00
7014;DHT22;3547;50.774;12.918;2023-09-18T08:22:44;24.10;1.00
7014;DHT22;3547;50.774;12.918;2023-09-18T08:25:11;24.10;1.00
7014;DHT22;3547;50.774;12.918;2023-09-18T08:27:41;24.20;1.00
7014;DHT22;3547;50.774;12.918;2023-09-18T08:30:11;24.30;1.00
7014;DHT22;3547;50.774;12.918;2023-09-18T08:32:38;24.40;1.00
7014;DHT22;3547;50.774;12.918;2023-09-18T08:35:05;24.60;1.00
7014;DHT22;3547;50.774;12.918;2023-09-18T08:37:32;24.70;1.00
7014;DHT22;3547;50.774;12.918;2023-09-18T08:39:58;24.80;1.00
7014;DHT22;3547;50.774;12.918;2023-09-18T08:42:29;24.80;1.00
7014;DHT22;3547;50.774;12.918;2023-09-18T08:44:58;25.00;1.00
7014;DHT22;3547;50.774;12.918;2023-09-18T08:47:26;25.00;1.00
7014;DHT22;3547;50.774;12.918;2023-09-18T08:49:54;25.10;1.00
7014;DHT22;3547;50.774;12.918;2023-09-18T08:52:22;25.20;1.00
7014;DHT22;3547;50.774;12.918;2023-09-18T08:54:49;25.30;1.00
7014;DHT22;3547;50.774;12.918;2023-09-18T08:57:16;25.40;1.00
7014;DHT22;3547;50.774;12.918;2023-09-18T08:59:43;25.40;1.00
7014;DHT22;3547;50.774;12.918;2023-09-18T09:02:09;25.50;1.00
7014;DHT22;3547;50.774;12.918;2023-09-18T09:04:39;25.50;1.00
7014;DHT22;3547;50.774;12.918;2023-09-18T09:07:05;25.70;1.00
7014;DHT22;3547;50.774;12.918;2023-09-18T09:09:32;25.80;1.00
7014;DHT22;3547;50.774;12.918;2023-09-18T09:11:59;25.80;1.00
7014;DHT22;3547;50.774;12.918;2023-09-18T09:14:25;25.80;1.00
7014;DHT22;3547;50.774;12.918;2023-09-18T09:16:55;25.80;1.00
7014;DHT22;3547;50.774;12.918;2023-09-18T09:19:32;25.80;1.00
7014;DHT22;3547;50.774;12.918;2023-09-18T09:21:59;25.80;1.00
7014;DHT22;3547;50.774;12.918;2023-09-18T09:24:41;25.80;1.00
7014;DHT22;3547;50.774;12.918;2023-09-18T09:27:08;25.90;1.00
7014;DHT22;3547;50.774;12.918;2023-09-18T09:29:58;26.10;1.00
7014;DHT22;3547;50.774;12.918;2023-09-18T09:39:22;26.70;1.00
7014;DHT22;3547;50.774;12.918;2023-09-18T09:41:53;27.00;1.00
7014;DHT22;3547;50.774;12.918;2023-09-18T09:51:08;27.40;1.00
7014;DHT22;3547;50.774;12.918;2023-09-18T09:53:47;27.40;1.00
7014;DHT22;3547;50.774;12.918;2023-09-18T09:56:14;27.40;1.00
7014;DHT22;3547;50.774;12.918;2023-09-18T09:58:40;27.40;1.00
7014;DHT22;3547;50.774;12.918;2023-09-18T10:01:12;27.50;1.00
7014;DHT22;3547;50.774;12.918;2023-09-18T10:03:44;27.60;1.00
7014;DHT22;3547;50.774;12.918;2023-09-18T10:06:11;27.60;1.00
7014;DHT22;3547;50.774;12.918;2023-09-18T10:08:41;27.70;1.00
7014;DHT22;3547;50.774;12.918;2023-09-18T10:11:09;27.60;1.00
7014;DHT22;3547;50.774;12.918;2023-09-18T10:13:42;27.70;1.00
7014;DHT22;3547;50.774;12.918;2023-09-18T10:16:14;27.80;1.00
7014;DHT22;3547;50.774;12.918;2023-09-18T10:22:44;27.90;1.00
7014;DHT22;3547;50.774;12.918;2023-09-18T10:25:24;28.00;1.00
7014;DHT22;3547;50.774;12.918;2023-09-18T10:27:51;28.00;1.00
7014;DHT22;3547;50.774;12.918;2023-09-18T10:30:24;28.00;1.00
7014;DHT22;3547;50.774;12.918;2023-09-18T10:32:52;27.90;1.00
7014;DHT22;3547;50.774;12.918;2023-09-18T10:35:19;27.70;1.00
7014;DHT22;3547;50.774;12.918;2023-09-18T10:37:48;27.70;1.00
7014;DHT22;3547;50.774;12.918;2023-09-18T10:40:17;27.70;1.00
7014;DHT22;3547;50.774;12.918;2023-09-18T10:42:45;27.80;1.00
7014;DHT22;3547;50.774;12.918;2023-09-18T10:45:15;27.90;1.00
7014;DHT22;3547;50.774;12.918;2023-09-18T10:47:44;28.00;1.00
7014;DHT22;3547;50.774;12.918;2023-09-18T10:50:23;28.10;1.00
7014;DHT22;3547;50.774;12.918;2023-09-18T10:52:50;28.20;1.00
7014;DHT22;3547;50.774;12.918;2023-09-18T10:55:16;28.30;1.00
7014;DHT22;3547;50.774;12.918;2023-09-18T10:57:53;28.40;1.00
7014;DHT22;3547;50.774;12.918;2023-09-18T11:00:28;28.20;1.00
7014;DHT22;3547;50.774;12.918;2023-09-18T11:03:15;28.00;1.00
7014;DHT22;3547;50.774;12.918;2023-09-18T11:05:47;28.00;1.00
7014;DHT22;3547;50.774;12.918;2023-09-18T11:11:01;28.10;1.00
7014;DHT22;3547;50.774;12.918;2023-09-18T11:13:31;28.30;1.00
7014;DHT22;3547;50.774;12.918;2023-09-18T11:16:32;28.20;1.00
7014;DHT22;3547;50.774;12.918;2023-09-18T11:21:26;27.80;1.00
7014;DHT22;3547;50.774;12.918;2023-09-18T11:24:03;27.80;1.00
7014;DHT22;3547;50.774;12.918;2023-09-18T11:26:31;27.90;1.00
7014;DHT22;3547;50.774;12.918;2023-09-18T11:29:05;27.90;1.00
7014;DHT22;3547;50.774;12.918;2023-09-18T11:31:58;28.10;1.00
7014;DHT22;3547;50.774;12.918;2023-09-18T11:34:29;27.80;1.00
7014;DHT22;3547;50.774;12.918;2023-09-18T11:37:01;27.80;1.00
7014;DHT22;3547;50.774;12.918;2023-09-18T11:39:40;28.00;1.00
7014;DHT22;3547;50.774;12.918;2023-09-18T11:44:37;27.80;1.00
7014;DHT22;3547;50.774;12.918;2023-09-18T11:47:09;27.80;1.00
7014;DHT22;3547;50.774;12.918;2023-09-18T11:49:40;27.80;1.00
7014;DHT22;3547;50.774;12.918;2023-09-18T11:52:09;27.80;1.00
7014;DHT22;3547;50.774;12.918;2023-09-18T11:54:39;27.80;1.00
7014;DHT22;3547;50.774;12.918;2023-09-18T11:57:06;27.60;1.00
7014;DHT22;3547;50.774;12.918;2023-09-18T11:59:36;27.50;1.00
7014;DHT22;3547;50.774;12.918;2023-09-18T12:02:03;27.40;1.00
7014;DHT22;3547;50.774;12.918;2023-09-18T12:04:32;27.20;1.00
7014;DHT22;3547;50.774;12.918;2023-09-18T12:07:03;27.00;1.00
7014;DHT22;3547;50.774;12.918;2023-09-18T12:09:31;26.70;1.00
7014;DHT22;3547;50.774;12.918;2023-09-18T12:12:01;26.70;1.00
7014;DHT22;3547;50.774;12.918;2023-09-18T12:14:32;26.60;1.00
7014;DHT22;3547;50.774;12.918;2023-09-18T12:17:02;26.60;1.00
7014;DHT22;3547;50.774;12.918;2023-09-18T12:19:30;26.70;1.00
7014;DHT22;3547;50.774;12.918;2023-09-18T12:21:57;26.70;1.00
7014;DHT22;3547;50.774;12.918;2023-09-18T12:24:25;26.70;1.00
7014;DHT22;3547;50.774;12.918;2023-09-18T12:26:52;26.60;1.00
7014;DHT22;3547;50.774;12.918;2023-09-18T12:29:22;26.60;1.00
7014;DHT22;3547;50.774;12.918;2023-09-18T12:31:48;26.60;1.00
7014;DHT22;3547;50.774;12.918;2023-09-18T12:34:20;26.50;1.00
7014;DHT22;3547;50.774;12.918;2023-09-18T12:36:47;26.50;1.00
7014;DHT22;3547;50.774;12.918;2023-09-18T12:39:14;26.50;1.00
7014;DHT22;3547;50.774;12.918;2023-09-18T12:41:45;26.50;1.00
7014;DHT22;3547;50.774;12.918;2023-09-18T12:44:11;26.40;1.00
7014;DHT22;3547;50.774;12.918;2023-09-18T12:46:39;26.50;1.00
7014;DHT22;3547;50.774;12.918;2023-09-18T12:49:20;26.50;1.00
7014;DHT22;3547;50.774;12.918;2023-09-18T12:52:00;26.40;1.00
7014;DHT22;3547;50.774;12.918;2023-09-18T12:54:53;26.50;1.00
7014;DHT22;3547;50.774;12.918;2023-09-18T12:57:23;26.50;1.00
7014;DHT22;3547;50.774;12.918;2023-09-18T12:59:50;26.60;1.00
7014;DHT22;3547;50.774;12.918;2023-09-18T13:02:18;26.60;1.00
7014;DHT22;3547;50.774;12.918;2023-09-18T13:04:55;26.60;1.00
7014;DHT22;3547;50.774;12.918;2023-09-18T13:07:22;26.60;1.00
7014;DHT22;3547;50.774;12.918;2023-09-18T13:10:04;26.50;1.00
7014;DHT22;3547;50.774;12.918;2023-09-18T13:12:46;26.60;1.00
7014;DHT22;3547;50.774;12.918;2023-09-18T13:15:31;26.70;1.00
7014;DHT22;3547;50.774;12.918;2023-09-18T13:18:10;26.50;1.00
7014;DHT22;3547;50.774;12.918;2023-09-18T13:20:36;26.40;1.00
7014;DHT22;3547;50.774;12.918;2023-09-18T13:23:03;26.20;1.00
7014;DHT22;3547;50.774;12.918;2023-09-18T13:25:35;25.70;1.00
7014;DHT22;3547;50.774;12.918;2023-09-18T13:28:03;25.70;1.00
7014;DHT22;3547;50.774;12.918;2023-09-18T13:30:30;25.70;1.00
7014;DHT22;3547;50.774;12.918;2023-09-18T13:35:32;25.60;1.00
7014;DHT22;3547;50.774;12.918;2023-09-18T13:38:01;25.60;1.00
7014;DHT22;3547;50.774;12.918;2023-09-18T13:40:32;25.70;1.00
7014;DHT22;3547;50.774;12.918;2023-09-18T13:43:02;25.40;1.00
7014;DHT22;3547;50.774;12.918;2023-09-18T13:45:32;25.30;1.00
7014;DHT22;3547;50.774;12.918;2023-09-18T13:47:59;25.20;1.00
7014;DHT22;3547;50.774;12.918;2023-09-18T13:50:25;25.00;1.00
7014;DHT22;3547;50.774;12.918;2023-09-18T13:52:51;24.70;1.00
7014;DHT22;3547;50.774;12.918;2023-09-18T13:55:17;24.50;1.00
7014;DHT22;3547;50.774;12.918;2023-09-18T13:57:43;24.50;1.00
7014;DHT22;3547;50.774;12.918;2023-09-18T14:00:10;24.20;1.00
7014;DHT22;3547;50.774;12.918;2023-09-18T14:02:41;24.00;1.00
7014;DHT22;3547;50.774;12.918;2023-09-18T14:05:08;23.90;1.00
7014;DHT22;3547;50.774;12.918;2023-09-18T14:07:38;23.60;1.00
7014;DHT22;3547;50.774;12.918;2023-09-18T14:10:06;23.60;1.00
7014;DHT22;3547;50.774;12.918;2023-09-18T14:12:33;23.60;1.00
7014;DHT22;3547;50.774;12.918;2023-09-18T14:14:59;23.70;1.00
7014;DHT22;3547;50.774;12.918;2023-09-18T14:17:34;23.80;1.00
7014;DHT22;3547;50.774;12.918;2023-09-18T14:20:01;23.60;1.00
7014;DHT22;3547;50.774;12.918;2023-09-18T14:22:33;23.70;1.00
7014;DHT22;3547;50.774;12.918;2023-09-18T14:25:02;23.60;1.00
7014;DHT22;3547;50.774;12.918;2023-09-18T14:27:34;23.70;1.00
7014;DHT22;3547;50.774;12.918;2023-09-18T14:30:01;23.60;1.00
7014;DHT22;3547;50.774;12.918;2023-09-18T14:32:33;23.40;1.00
7014;DHT22;3547;50.774;12.918;2023-09-18T14:35:03;23.20;1.00
7014;DHT22;3547;50.774;12.918;2023-09-18T14:37:31;23.20;1.00
7014;DHT22;3547;50.774;12.918;2023-09-18T14:39:57;23.00;1.00
7014;DHT22;3547;50.774;12.918;2023-09-18T14:42:24;23.00;1.00
7014;DHT22;3547;50.774;12.918;2023-09-18T14:44:50;22.70;1.00
7014;DHT22;3547;50.774;12.918;2023-09-18T14:47:16;22.60;1.00
7014;DHT22;3547;50.774;12.918;2023-09-18T14:49:43;22.60;1.00
7014;DHT22;3547;50.774;12.918;2023-09-18T14:52:14;22.50;1.00
7014;DHT22;3547;50.774;12.918;2023-09-18T14:54:42;22.20;1.00
7014;DHT22;3547;50.774;12.918;2023-09-18T14:57:08;22.30;1.00
7014;DHT22;3547;50.774;12.918;2023-09-18T14:59:34;22.10;1.00
7014;DHT22;3547;50.774;12.918;2023-09-18T15:02:00;21.90;1.00
7014;DHT22;3547;50.774;12.918;2023-09-18T15:04:26;21.90;1.00
7014;DHT22;3547;50.774;12.918;2023-09-18T15:06:52;21.80;1.00
7014;DHT22;3547;50.774;12.918;2023-09-18T15:09:18;21.80;1.00
7014;DHT22;3547;50.774;12.918;2023-09-18T15:11:44;21.70;1.00
7014;DHT22;3547;50.774;12.918;2023-09-18T15:14:11;21.60;1.00
7014;DHT22;3547;50.774;12.918;2023-09-18T15:16:37;21.50;1.00
7014;DHT22;3547;50.774;12.918;2023-09-18T15:19:03;21.30;1.00
7014;DHT22;3547;50.774;12.918;2023-09-18T15:21:32;21.40;1.00
7014;DHT22;3547;50.774;12.918;2023-09-18T15:23:58;21.40;1.00
7014;DHT22;3547;50.774;12.918;2023-09-18T15:26:24;21.30;1.00
7014;DHT22;3547;50.774;12.918;2023-09-18T15:28:50;21.10;1.00
7014;DHT22;3547;50.774;12.918;2023-09-18T15:31:16;21.10;1.00
7014;DHT22;3547;50.774;12.918;2023-09-18T15:33:43;21.00;1.00
7014;DHT22;3547;50.774;12.918;2023-09-18T15:36:11;20.90;1.00
7014;DHT22;3547;50.774;12.918;2023-09-18T15:42:00;20.70;1.00
7014;DHT22;3547;50.774;12.918;2023-09-18T15:44:27;20.70;1.00
7014;DHT22;3547;50.774;12.918;2023-09-18T15:46:54;20.60;1.00
7014;DHT22;3547;50.774;12.918;2023-09-18T15:49:20;20.70;1.00
7014;DHT22;3547;50.774;12.918;2023-09-18T15:51:46;20.70;1.00
7014;DHT22;3547;50.774;12.918;2023-09-18T15:54:12;20.70;1.00
7014;DHT22;3547;50.774;12.918;2023-09-18T15:56:39;20.70;1.00
7014;DHT22;3547;50.774;12.918;2023-09-18T15:59:06;20.70;1.00
7014;DHT22;3547;50.774;12.918;2023-09-18T16:01:34;20.70;1.00
7014;DHT22;3547;50.774;12.918;2023-09-18T16:04:03;20.70;1.00
7014;DHT22;3547;50.774;12.918;2023-09-18T16:06:29;20.70;1.00
7014;DHT22;3547;50.774;12.918;2023-09-18T16:08:57;20.60;1.00
7014;DHT22;3547;50.774;12.918;2023-09-18T16:11:25;20.50;1.00
7014;DHT22;3547;50.774;12.918;2023-09-18T16:13:52;20.30;1.00
7014;DHT22;3547;50.774;12.918;2023-09-18T16:16:22;20.20;1.00
7014;DHT22;3547;50.774;12.918;2023-09-18T16:18:48;20.00;1.00
7014;DHT22;3547;50.774;12.918;2023-09-18T16:21:15;20.00;1.00
7014;DHT22;3547;50.774;12.918;2023-09-18T16:23:41;20.10;1.00
7014;DHT22;3547;50.774;12.918;2023-09-18T16:26:07;20.00;1.00
7014;DHT22;3547;50.774;12.918;2023-09-18T16:28:33;19.90;1.00
7014;DHT22;3547;50.774;12.918;2023-09-18T16:30:59;19.90;1.00
7014;DHT22;3547;50.774;12.918;2023-09-18T16:33:31;19.60;1.00
7014;DHT22;3547;50.774;12.918;2023-09-18T16:35:57;19.50;1.00
7014;DHT22;3547;50.774;12.918;2023-09-18T16:38:23;19.40;1.00
7014;DHT22;3547;50.774;12.918;2023-09-18T16:40:49;19.40;1.00
7014;DHT22;3547;50.774;12.918;2023-09-18T16:43:16;19.40;1.00